Accueil
Images satellite Prévisions 15 joursClimatMétéo marine Cyclones Foudre AéroportsFAQ Actualités A propos
Météo : Europe Afrique Amérique du Nord Amérique du Sud Asie Australie-Océanie Autres
Langues Contact

Bergerac, France

Roumanière

latitude: 44-49N, longitude: 000-31E, altitude: 51 m


METAR: LFBE 201200Z AUTO 34007KT 9999 OVC024 11/07 Q1033
TAF: LFBE 201100Z 2012/2021 32008KT 9999 BKN030 BECMG 2018/2020 CAVOK

Heure: 13:11 (12:11 UTC)

Observation

Le bulletin a été fait il y a 11 minutes, à 12:00 UTC
Vent 7 kt de nord/nord-ouest
Température 11°C
Humidité 76%
Pression 1033 hPa
Visibilité 10 km ou plus
Ciel couvert à une hauteur de 2400 ft

Changer d'unités

Prévision

Le bulletin a été fait il y a 1 heure et 11 minutes, à 11:00 UTC
Prévision valable du 20 à 12 UTC au 20 à 21 UTC
Vent 8 kt de nord-ouest
Visibilité 10 km ou plus
Nuages fragmentés à une hauteur de 3000 ft
Evoluant progressivement
du 20 à 18 UTC au 20 à 20 UTC
Visibilité 10 km ou plus
pas de nuages en-dessous de 1500 mètres et pas de cumulonimbus.
Les informations qui figurent sur ce site font l'objet d'une clause de non-responsabilité
Météo : Europe Afrique Amérique du Nord Amérique du Sud Asie Australie-Océanie Autres
Images satellite Prévisions 15 joursClimatMétéo marine Cyclones Foudre AéroportsFAQ Langues Contact Actualités A propos